Time;durP1;ratioP1;P1;durP2;ratioP2;P2;SDS_P1;SDS_P2;PMS_P1;PMS_P2;Temp;Humidity;BMP_temperature;BMP_pressure;BME280_temperature;BME280_humidity;BME280_pressure;Samples;Min_cycle;Max_cycle;Signal;HPM_P1;HPM_P2
2024/01/29 00:02:23;;;;;;;0.00;0.00;;;1.30;99.90;;;;;;4997135;28;20591;-66
2024/01/29 00:04:49;;;;;;;0.00;0.00;;;1.30;99.90;;;;;;4998419;28;20045;-67
2024/01/29 00:07:14;;;;;;;0.27;0.23;;;1.30;99.90;;;;;;4995336;28;20014;-66
2024/01/29 00:09:41;;;;;;;0.00;0.00;;;1.20;99.90;;;;;;5005248;28;20025;-66
2024/01/29 00:12:08;;;;;;;0.00;0.00;;;1.30;99.90;;;;;;4995561;28;20035;-66
2024/01/29 00:14:33;;;;;;;0.00;0.00;;;1.30;99.90;;;;;;4999802;28;20061;-66
2024/01/29 00:17:00;;;;;;;0.00;0.00;;;1.30;99.90;;;;;;4996402;28;20064;-66
2024/01/29 00:19:26;;;;;;;0.17;0.17;;;1.30;99.90;;;;;;5001153;28;20037;-66
2024/01/29 00:21:51;;;;;;;1.03;1.00;;;1.30;99.90;;;;;;5000251;28;20026;-66
2024/01/29 00:24:17;;;;;;;0.00;0.00;;;1.20;99.90;;;;;;4998348;28;20228;-66
2024/01/29 00:26:43;;;;;;;0.00;0.00;;;1.20;99.90;;;;;;4990491;28;20065;-66
2024/01/29 00:29:09;;;;;;;0.00;0.00;;;1.20;99.90;;;;;;4993547;28;20034;-66
2024/01/29 00:31:35;;;;;;;0.00;0.00;;;1.20;99.90;;;;;;4995077;28;20638;-66
2024/01/29 00:34:00;;;;;;;0.00;0.00;;;1.20;99.90;;;;;;4994439;28;20045;-66
2024/01/29 00:36:26;;;;;;;0.00;0.00;;;1.10;99.90;;;;;;4990994;28;20033;-66
2024/01/29 00:38:51;;;;;;;0.00;0.00;;;1.10;99.90;;;;;;4994661;28;20061;-66
2024/01/29 00:41:17;;;;;;;0.00;0.00;;;1.10;99.90;;;;;;4995869;28;20026;-66
2024/01/29 00:43:43;;;;;;;0.00;0.00;;;1.10;99.90;;;;;;4995752;28;20068;-66
2024/01/29 00:46:08;;;;;;;0.00;0.00;;;1.10;99.90;;;;;;4993746;28;20030;-66
2024/01/29 00:48:34;;;;;;;0.00;0.00;;;1.10;99.90;;;;;;4991496;28;20029;-66
2024/01/29 00:51:01;;;;;;;0.00;0.00;;;1.10;99.90;;;;;;4994227;28;20018;-66
2024/01/29 00:53:26;;;;;;;;;;;1.00;99.90;;;;;;4990961;28;20022;-66
2024/01/29 00:55:53;;;;;;;0.00;0.00;;;1.00;99.90;;;;;;5017051;28;19952;-66
2024/01/29 00:58:20;;;;;;;0.00;0.00;;;0.90;99.90;;;;;;4995696;28;20029;-66
2024/01/29 01:00:47;;;;;;;0.00;0.00;;;0.90;99.90;;;;;;4993095;28;20481;-66
2024/01/29 01:03:14;;;;;;;0.00;0.00;;;0.90;99.90;;;;;;4996046;28;20053;-66
2024/01/29 01:05:40;;;;;;;0.38;0.38;;;0.90;99.90;;;;;;4995352;28;20034;-66
2024/01/29 01:08:06;;;;;;;0.00;0.00;;;0.90;99.90;;;;;;4989935;28;20014;-66
2024/01/29 01:10:32;;;;;;;0.00;0.00;;;0.90;99.90;;;;;;5000498;28;20540;-66
2024/01/29 01:12:58;;;;;;;0.00;0.00;;;0.90;99.90;;;;;;4992538;28;20106;-66
2024/01/29 01:15:23;;;;;;;0.00;0.00;;;0.90;99.90;;;;;;4994725;28;20030;-66
2024/01/29 01:17:49;;;;;;;0.10;0.10;;;0.90;99.90;;;;;;5021532;28;20026;-66
2024/01/29 01:20:15;;;;;;;0.00;0.00;;;0.80;99.90;;;;;;5004492;28;20634;-66
2024/01/29 01:22:40;;;;;;;0.00;0.00;;;0.80;99.90;;;;;;4997983;28;20034;-66
2024/01/29 01:25:06;;;;;;;0.00;0.00;;;0.80;99.90;;;;;;4999745;28;20029;-66
2024/01/29 01:27:32;;;;;;;0.03;0.03;;;0.80;99.90;;;;;;5000518;28;20017;-66
2024/01/29 01:29:58;;;;;;;2.28;0.45;;;0.70;99.90;;;;;;4998308;28;20026;-66
2024/01/29 01:32:24;;;;;;;0.00;0.00;;;0.70;99.90;;;;;;4996228;28;20022;-66
2024/01/29 01:34:50;;;;;;;0.00;0.00;;;0.70;99.90;;;;;;5002839;28;20156;-66
2024/01/29 01:37:16;;;;;;;0.00;0.00;;;0.70;99.90;;;;;;4997963;28;20104;-66
2024/01/29 01:39:41;;;;;;;0.00;0.00;;;0.60;99.90;;;;;;5003132;28;20164;-66
2024/01/29 01:42:08;;;;;;;0.00;0.00;;;0.60;99.90;;;;;;4998565;28;20038;-66
2024/01/29 01:44:34;;;;;;;0.00;0.00;;;0.60;99.90;;;;;;5015232;28;20021;-66
2024/01/29 01:47:00;;;;;;;0.05;0.05;;;0.60;99.90;;;;;;5001671;28;20022;-66
2024/01/29 01:49:27;;;;;;;0.40;0.40;;;0.60;99.90;;;;;;5025332;28;20735;-66
2024/01/29 01:51:53;;;;;;;;;;;0.50;99.90;;;;;;4998393;28;20351;-65
2024/01/29 01:54:18;;;;;;;0.00;0.00;;;0.60;99.90;;;;;;4998714;28;19996;-66
2024/01/29 01:56:45;;;;;;;0.00;0.00;;;0.60;99.90;;;;;;5001148;28;20022;-66
2024/01/29 01:59:11;;;;;;;0.00;0.00;;;0.60;99.90;;;;;;4997837;28;20468;-66
2024/01/29 02:01:38;;;;;;;0.00;0.00;;;0.60;99.90;;;;;;4997180;28;20030;-66
2024/01/29 02:04:05;;;;;;;0.00;0.00;;;0.60;99.90;;;;;;5003010;28;20453;-66
2024/01/29 02:06:30;;;;;;;0.00;0.00;;;0.60;99.90;;;;;;4997601;28;20068;-66
2024/01/29 02:08:56;;;;;;;0.00;0.00;;;0.60;99.90;;;;;;4999853;28;20026;-66
2024/01/29 02:11:23;;;;;;;0.00;0.00;;;0.50;99.90;;;;;;4997553;28;20021;-66
2024/01/29 02:13:49;;;;;;;0.00;0.00;;;0.60;99.90;;;;;;5002436;28;20029;-66
2024/01/29 02:16:15;;;;;;;0.00;0.00;;;0.60;99.90;;;;;;4998084;28;20462;-66
2024/01/29 02:18:41;;;;;;;0.00;0.00;;;0.60;99.90;;;;;;4996440;28;20029;-66
2024/01/29 02:21:07;;;;;;;0.00;0.00;;;0.60;99.90;;;;;;5002239;28;20030;-66
2024/01/29 02:23:32;;;;;;;0.07;0.07;;;0.60;99.90;;;;;;4995553;28;20022;-66
2024/01/29 02:25:58;;;;;;;0.00;0.00;;;0.50;99.90;;;;;;5002023;28;20105;-66
2024/01/29 02:28:25;;;;;;;0.00;0.00;;;0.50;99.90;;;;;;4995282;28;20021;-66
2024/01/29 02:30:51;;;;;;;0.00;0.00;;;0.50;99.90;;;;;;4997992;28;20026;-66
2024/01/29 02:33:17;;;;;;;0.00;0.00;;;0.50;99.90;;;;;;4998707;28;20036;-63
2024/01/29 02:35:48;;;;;;;0.00;0.00;;;0.50;99.90;;;;;;5001321;28;20112;-64
2024/01/29 02:38:13;;;;;;;0.00;0.00;;;0.50;99.90;;;;;;4995879;28;20018;-63
2024/01/29 02:40:39;;;;;;;0.00;0.00;;;0.40;99.90;;;;;;5001711;28;20022;-63
2024/01/29 02:43:05;;;;;;;0.00;0.00;;;0.40;99.90;;;;;;4997187;28;20048;-63
2024/01/29 02:45:31;;;;;;;0.00;0.00;;;0.30;99.90;;;;;;4998035;28;20034;-65
2024/01/29 02:47:56;;;;;;;0.43;0.40;;;0.30;99.90;;;;;;4997737;28;20088;-63
2024/01/29 02:50:29;;;;;;;0.00;0.00;;;0.30;99.90;;;;;;5016057;28;20076;-62
2024/01/29 02:52:55;;;;;;;0.00;0.00;;;0.20;99.90;;;;;;5012534;28;20022;-64
2024/01/29 02:55:20;;;;;;;0.00;0.00;;;0.20;99.90;;;;;;4999083;28;20509;-62
2024/01/29 02:57:46;;;;;;;0.00;0.00;;;0.20;99.90;;;;;;5011941;28;20076;-63
2024/01/29 03:00:12;;;;;;;0.00;0.00;;;0.20;99.90;;;;;;4996427;28;20026;-63
2024/01/29 03:02:38;;;;;;;0.00;0.00;;;0.20;99.90;;;;;;4999307;28;20069;-64
2024/01/29 03:05:04;;;;;;;0.00;0.00;;;0.20;99.90;;;;;;4996375;28;20112;-63
2024/01/29 03:07:30;;;;;;;0.00;0.00;;;0.20;99.90;;;;;;5000910;28;20030;-64
2024/01/29 03:09:55;;;;;;;0.00;0.00;;;0.20;99.90;;;;;;4996958;28;20084;-63
2024/01/29 03:12:21;;;;;;;0.20;0.20;;;0.20;99.90;;;;;;4999184;28;20068;-63
2024/01/29 03:14:46;;;;;;;0.00;0.00;;;0.10;99.90;;;;;;4997970;28;20063;-62
2024/01/29 03:17:12;;;;;;;0.00;0.00;;;0.10;99.90;;;;;;4998065;28;20018;-63
2024/01/29 03:19:40;;;;;;;0.00;0.00;;;0.10;99.90;;;;;;4996491;28;20030;-62
2024/01/29 03:22:05;;;;;;;0.00;0.00;;;0.10;99.90;;;;;;4999715;28;20133;-64
2024/01/29 03:24:31;;;;;;;0.00;0.00;;;0.00;99.90;;;;;;5001158;28;20132;-64
2024/01/29 03:26:57;;;;;;;0.00;0.00;;;0.00;99.90;;;;;;4996794;28;20029;-64
2024/01/29 03:29:22;;;;;;;0.00;0.00;;;0.00;99.90;;;;;;5000036;28;20026;-63
2024/01/29 03:31:48;;;;;;;0.00;0.00;;;0.00;99.90;;;;;;4997362;28;20025;-64
2024/01/29 03:34:13;;;;;;;0.00;0.00;;;0.10;99.90;;;;;;4999914;28;20076;-63
2024/01/29 03:36:39;;;;;;;0.17;0.17;;;0.10;99.90;;;;;;4997408;28;20030;-63
2024/01/29 03:39:05;;;;;;;0.10;0.10;;;0.00;99.90;;;;;;5000662;28;20026;-62
2024/01/29 03:41:34;;;;;;;0.00;0.00;;;0.00;99.90;;;;;;5001917;28;20030;-64
2024/01/29 03:43:59;;;;;;;2.65;1.98;;;-0.10;99.90;;;;;;4998039;28;20018;-65
2024/01/29 03:46:25;;;;;;;0.03;0.03;;;-0.10;99.90;;;;;;5001035;28;20026;-63
2024/01/29 03:48:52;;;;;;;0.00;0.00;;;0.00;99.90;;;;;;4996686;28;20036;-62
2024/01/29 03:51:17;;;;;;;0.10;0.10;;;-0.10;99.90;;;;;;4997002;28;20026;-64
2024/01/29 03:53:43;;;;;;;0.00;0.00;;;-0.10;99.90;;;;;;5000148;28;20064;-64
2024/01/29 03:56:09;;;;;;;0.00;0.00;;;-0.10;99.90;;;;;;4995984;28;20129;-63
2024/01/29 03:58:34;;;;;;;0.00;0.00;;;0.10;99.90;;;;;;4998301;28;20072;-62
2024/01/29 04:01:00;;;;;;;0.00;0.00;;;0.20;99.90;;;;;;4994865;28;20026;-62
2024/01/29 04:03:26;;;;;;;0.00;0.00;;;0.10;99.90;;;;;;5000525;28;20773;-64
2024/01/29 04:05:51;;;;;;;0.00;0.00;;;0.10;99.90;;;;;;4995956;28;20018;-62
2024/01/29 04:08:17;;;;;;;0.00;0.00;;;0.20;99.90;;;;;;5000876;28;20433;-63
2024/01/29 04:10:43;;;;;;;0.00;0.00;;;0.20;99.90;;;;;;5000176;28;20101;-63
2024/01/29 04:13:08;;;;;;;0.00;0.00;;;0.10;99.90;;;;;;4995576;28;20036;-63
2024/01/29 04:15:34;;;;;;;0.00;0.00;;;0.20;99.90;;;;;;5000293;28;20026;-64
2024/01/29 04:17:59;;;;;;;0.00;0.00;;;0.10;99.90;;;;;;4996680;28;20029;-64
2024/01/29 04:20:25;;;;;;;0.00;0.00;;;0.00;99.90;;;;;;4999444;28;20041;-64
2024/01/29 04:22:51;;;;;;;0.00;0.00;;;0.00;99.90;;;;;;5000303;28;20040;-62
2024/01/29 04:25:16;;;;;;;0.00;0.00;;;0.00;99.90;;;;;;5001962;28;20030;-63
2024/01/29 04:27:42;;;;;;;0.00;0.00;;;-0.10;99.90;;;;;;4996255;28;20037;-62
2024/01/29 04:30:08;;;;;;;0.00;0.00;;;-0.10;99.90;;;;;;5005546;28;20034;-64
2024/01/29 04:32:34;;;;;;;0.00;0.00;;;-0.10;99.90;;;;;;4996456;28;20629;-63
2024/01/29 04:34:59;;;;;;;0.00;0.00;;;-0.10;99.90;;;;;;4998569;28;20026;-64
2024/01/29 04:37:25;;;;;;;0.00;0.00;;;-0.20;99.90;;;;;;4998024;28;20041;-63
2024/01/29 04:39:51;;;;;;;0.00;0.00;;;-0.20;99.90;;;;;;4995861;28;20026;-63
2024/01/29 04:42:17;;;;;;;0.00;0.00;;;-0.30;99.90;;;;;;5000437;28;20145;-63
2024/01/29 04:44:43;;;;;;;0.00;0.00;;;-0.30;99.90;;;;;;4996425;28;20038;-64
2024/01/29 04:47:09;;;;;;;0.00;0.00;;;-0.20;99.90;;;;;;4999664;28;20501;-63
2024/01/29 04:49:34;;;;;;;0.00;0.00;;;-0.30;99.90;;;;;;4992470;28;20028;-63
2024/01/29 04:52:00;;;;;;;1.33;0.53;;;-0.30;99.90;;;;;;4997240;28;20096;-63
2024/01/29 04:54:26;;;;;;;0.00;0.00;;;-0.40;99.90;;;;;;5002103;28;20068;-63
2024/01/29 04:56:52;;;;;;;0.00;0.00;;;-0.40;99.90;;;;;;5001046;28;20061;-62
2024/01/29 04:59:18;;;;;;;0.00;0.00;;;-0.40;99.90;;;;;;5005593;28;20033;-63
2024/01/29 05:01:44;;;;;;;0.00;0.00;;;-0.40;99.90;;;;;;4998165;28;20033;-64
2024/01/29 05:04:09;;;;;;;0.00;0.00;;;-0.40;99.90;;;;;;5000907;28;20029;-63
2024/01/29 05:06:35;;;;;;;0.00;0.00;;;-0.40;99.90;;;;;;4997702;28;20048;-63
2024/01/29 05:09:01;;;;;;;0.00;0.00;;;-0.50;99.90;;;;;;4999356;28;20057;-64
2024/01/29 05:11:27;;;;;;;0.00;0.00;;;-0.50;99.90;;;;;;4998923;28;20033;-63
2024/01/29 05:13:55;;;;;;;0.00;0.00;;;-0.40;99.90;;;;;;4995621;28;20030;-62
2024/01/29 05:16:21;;;;;;;0.00;0.00;;;-0.40;99.90;;;;;;5002720;28;21370;-63
2024/01/29 05:18:48;;;;;;;0.00;0.00;;;-0.40;99.90;;;;;;5014360;28;20213;-62
2024/01/29 05:21:13;;;;;;;0.00;0.00;;;-0.40;99.90;;;;;;5013697;28;20269;-63
2024/01/29 05:23:39;;;;;;;0.00;0.00;;;-0.50;99.90;;;;;;4999278;28;20088;-62
2024/01/29 05:26:05;;;;;;;0.00;0.00;;;-0.50;99.90;;;;;;4999455;28;20032;-63
2024/01/29 05:28:31;;;;;;;0.35;0.35;;;-0.50;99.90;;;;;;5000860;28;20207;-63
2024/01/29 05:30:56;;;;;;;0.00;0.00;;;-0.50;99.90;;;;;;5008546;28;20100;-63
2024/01/29 05:33:22;;;;;;;0.00;0.00;;;-0.50;99.90;;;;;;5002960;28;20026;-63
2024/01/29 05:35:48;;;;;;;0.00;0.00;;;-0.60;99.90;;;;;;5005685;28;20022;-63
2024/01/29 05:38:13;;;;;;;0.00;0.00;;;-0.60;99.90;;;;;;5000448;28;20025;-63
2024/01/29 05:40:39;;;;;;;0.00;0.00;;;-0.60;99.90;;;;;;4999525;28;20071;-63
2024/01/29 05:43:05;;;;;;;0.00;0.00;;;-0.50;99.90;;;;;;5000097;28;20029;-62
2024/01/29 05:45:30;;;;;;;0.00;0.00;;;-0.60;99.90;;;;;;5000194;28;20018;-63
2024/01/29 05:47:56;;;;;;;0.00;0.00;;;-0.60;99.90;;;;;;4999830;28;20026;-63
2024/01/29 05:50:22;;;;;;;0.03;0.03;;;-0.50;99.90;;;;;;5000326;28;20025;-63
2024/01/29 05:52:47;;;;;;;0.00;0.00;;;-0.40;99.90;;;;;;5003787;28;20028;-64
2024/01/29 05:55:13;;;;;;;0.00;0.00;;;-0.40;99.90;;;;;;4999250;28;20034;-64
2024/01/29 05:57:39;;;;;;;0.00;0.00;;;-0.40;99.90;;;;;;5000454;28;20038;-62
2024/01/29 06:00:09;;;;;;;0.00;0.00;;;-0.30;99.90;;;;;;4999320;28;20413;-62
2024/01/29 06:02:39;;;;;;;0.00;0.00;;;-0.20;99.90;;;;;;5002007;28;20149;-62
2024/01/29 06:05:05;;;;;;;1.25;0.73;;;-0.20;99.90;;;;;;4999775;28;20022;-64
2024/01/29 06:07:31;;;;;;;0.00;0.00;;;-0.10;99.90;;;;;;4999696;28;20097;-65
2024/01/29 06:09:56;;;;;;;0.00;0.00;;;-0.10;99.90;;;;;;4998968;28;20018;-65
2024/01/29 06:12:22;;;;;;;0.17;0.17;;;-0.30;99.90;;;;;;4998620;28;20033;-66
2024/01/29 06:14:48;;;;;;;0.10;0.10;;;-0.30;99.90;;;;;;4999974;28;20083;-64
2024/01/29 06:17:13;;;;;;;0.00;0.00;;;-0.10;99.90;;;;;;4999199;28;20049;-65
2024/01/29 06:19:41;;;;;;;0.00;0.00;;;-0.10;99.90;;;;;;4998604;28;20049;-64
2024/01/29 06:22:06;;;;;;;0.05;0.05;;;-0.20;99.90;;;;;;4997616;28;20024;-65
2024/01/29 06:24:32;;;;;;;0.00;0.00;;;-0.20;99.90;;;;;;5002665;28;20460;-65
2024/01/29 06:26:58;;;;;;;0.23;0.23;;;-0.20;99.90;;;;;;4999796;28;20092;-65
2024/01/29 06:29:23;;;;;;;0.23;0.23;;;-0.10;99.90;;;;;;5000164;28;20048;-65
2024/01/29 06:31:49;;;;;;;0.13;0.13;;;-0.10;99.90;;;;;;5018677;28;20132;-65
2024/01/29 06:34:14;;;;;;;0.00;0.00;;;-0.10;99.90;;;;;;4998266;28;20068;-64
2024/01/29 06:36:40;;;;;;;0.00;0.00;;;0.00;99.90;;;;;;5001836;28;20025;-65
2024/01/29 06:39:07;;;;;;;0.00;0.00;;;0.10;99.90;;;;;;4998068;28;20022;-65
2024/01/29 06:41:33;;;;;;;0.00;0.00;;;0.30;99.90;;;;;;4999022;28;20024;-65
2024/01/29 06:43:58;;;;;;;0.10;0.10;;;0.60;99.90;;;;;;5002484;28;20033;-65
2024/01/29 06:46:24;;;;;;;0.00;0.00;;;1.10;99.90;;;;;;4998103;28;20025;-65
2024/01/29 06:48:50;;;;;;;0.00;0.00;;;1.50;99.90;;;;;;4998003;28;20037;-65
2024/01/29 06:51:16;;;;;;;0.00;0.00;;;1.90;99.90;;;;;;5003171;28;20034;-65
2024/01/29 06:53:42;;;;;;;0.00;0.00;;;2.60;99.90;;;;;;5002942;28;20818;-66
2024/01/29 06:56:07;;;;;;;0.00;0.00;;;3.10;99.90;;;;;;5002199;28;20474;-66
2024/01/29 06:58:36;;;;;;;0.00;0.00;;;3.60;99.90;;;;;;5003048;28;20039;-65
2024/01/29 07:01:03;;;;;;;0.10;0.10;;;4.20;99.90;;;;;;5002143;28;20034;-65
2024/01/29 07:03:28;;;;;;;;;;;4.60;99.90;;;;;;5001650;28;20034;-65
2024/01/29 07:05:54;;;;;;;0.00;0.00;;;4.70;99.90;;;;;;4999166;28;19932;-66
2024/01/29 07:08:20;;;;;;;0.00;0.00;;;5.10;99.90;;;;;;4998317;28;20145;-66
2024/01/29 07:10:46;;;;;;;0.00;0.00;;;5.70;99.90;;;;;;4999706;28;20388;-66
2024/01/29 07:13:12;;;;;;;0.00;0.00;;;6.00;99.90;;;;;;5000723;28;20348;-66
2024/01/29 07:15:38;;;;;;;0.00;0.00;;;6.30;99.90;;;;;;4999298;28;20374;-67
2024/01/29 07:18:04;;;;;;;0.03;0.03;;;6.40;99.90;;;;;;4997894;28;20457;-65
2024/01/29 07:20:37;;;;;;;0.00;0.00;;;6.90;99.90;;;;;;5000271;28;20022;-65
2024/01/29 07:23:04;;;;;;;0.00;0.00;;;7.20;99.90;;;;;;4995707;28;20494;-65
2024/01/29 07:25:31;;;;;;;0.00;0.00;;;7.30;99.90;;;;;;4998154;28;20049;-65
2024/01/29 07:27:59;;;;;;;0.30;0.30;;;7.40;99.90;;;;;;5003341;28;20029;-65
2024/01/29 07:30:25;;;;;;;0.00;0.00;;;7.40;99.90;;;;;;4998446;28;20025;-65
2024/01/29 07:32:51;;;;;;;0.05;0.05;;;7.40;99.90;;;;;;5002773;28;20118;-64
2024/01/29 07:35:16;;;;;;;0.10;0.10;;;7.60;99.90;;;;;;4998743;28;20080;-65
2024/01/29 07:37:42;;;;;;;0.00;0.00;;;7.20;99.90;;;;;;5001021;28;20026;-66
2024/01/29 07:40:09;;;;;;;0.00;0.00;;;7.30;99.90;;;;;;4999227;28;20037;-66
2024/01/29 07:42:36;;;;;;;0.00;0.00;;;7.00;99.90;;;;;;4996119;28;20393;-66
2024/01/29 07:45:02;;;;;;;0.00;0.00;;;6.40;99.90;;;;;;5001921;28;20552;-66
2024/01/29 07:47:27;;;;;;;0.00;0.00;;;6.50;99.90;;;;;;4998164;28;20076;-66
2024/01/29 07:49:54;;;;;;;0.00;0.00;;;6.70;99.90;;;;;;4996497;28;20034;-66
2024/01/29 07:52:20;;;;;;;0.00;0.00;;;6.50;99.90;;;;;;4998215;28;21063;-66
2024/01/29 07:54:46;;;;;;;0.23;0.23;;;6.80;99.90;;;;;;5012773;28;20080;-67
2024/01/29 07:57:11;;;;;;;0.00;0.00;;;6.70;99.90;;;;;;5002505;28;20044;-66
2024/01/29 07:59:37;;;;;;;0.00;0.00;;;6.90;99.90;;;;;;4993523;28;20110;-67
2024/01/29 08:02:03;;;;;;;0.50;0.43;;;7.20;99.90;;;;;;4998429;28;20030;-67
2024/01/29 08:04:28;;;;;;;0.10;0.10;;;7.00;99.90;;;;;;5001489;28;20053;-67
2024/01/29 08:06:54;;;;;;;0.03;0.03;;;7.20;99.90;;;;;;4997075;28;20261;-66
2024/01/29 08:09:20;;;;;;;0.00;0.00;;;7.10;99.90;;;;;;4998776;28;20083;-66
2024/01/29 08:11:45;;;;;;;0.00;0.00;;;7.40;99.90;;;;;;4992500;28;20018;-66
2024/01/29 08:14:11;;;;;;;0.00;0.00;;;7.50;99.90;;;;;;4997591;28;20606;-66
2024/01/29 08:16:37;;;;;;;0.00;0.00;;;7.80;99.90;;;;;;4993796;28;20018;-66
2024/01/29 08:19:02;;;;;;;0.00;0.00;;;7.60;99.90;;;;;;5002607;28;20528;-66
2024/01/29 08:21:28;;;;;;;0.00;0.00;;;6.50;99.90;;;;;;4997743;28;20029;-66
2024/01/29 08:23:55;;;;;;;0.20;0.20;;;6.50;99.90;;;;;;4999252;28;20385;-66
2024/01/29 08:26:21;;;;;;;0.00;0.00;;;6.20;99.90;;;;;;5002859;28;20034;-61
2024/01/29 08:28:46;;;;;;;0.30;0.30;;;6.00;99.90;;;;;;5002380;28;20413;-63
2024/01/29 08:31:12;;;;;;;0.00;0.00;;;6.20;99.90;;;;;;5004679;28;20030;-63
2024/01/29 08:33:38;;;;;;;0.00;0.00;;;7.10;99.90;;;;;;5001495;28;20028;-63
2024/01/29 08:36:04;;;;;;;0.30;0.30;;;8.50;99.90;;;;;;5004922;28;20053;-63
2024/01/29 08:38:29;;;;;;;0.00;0.00;;;9.50;99.90;;;;;;5005950;28;20104;-63
2024/01/29 08:40:55;;;;;;;0.00;0.00;;;10.10;99.40;;;;;;5016086;28;20550;-63
2024/01/29 08:43:21;;;;;;;0.00;0.00;;;10.40;98.90;;;;;;5003882;28;20034;-63
2024/01/29 08:45:46;;;;;;;0.20;0.20;;;10.60;98.30;;;;;;5002807;28;20022;-63
2024/01/29 08:48:12;;;;;;;0.00;0.00;;;10.90;97.60;;;;;;5001040;28;20036;-63
2024/01/29 08:50:38;;;;;;;0.10;0.10;;;11.40;96.20;;;;;;5006123;28;20069;-64
2024/01/29 08:53:04;;;;;;;0.10;0.10;;;12.00;95.10;;;;;;5000570;28;20293;-62
2024/01/29 08:55:33;;;;;;;0.00;0.00;;;12.60;93.60;;;;;;4999361;28;20031;-63
2024/01/29 08:57:59;;;;;;;0.00;0.00;;;13.00;92.60;;;;;;5002340;28;20010;-64
2024/01/29 09:00:25;;;;;;;0.00;0.00;;;13.10;91.90;;;;;;4999918;28;20029;-63
2024/01/29 09:02:51;;;;;;;0.00;0.00;;;12.40;91.40;;;;;;5004963;28;20418;-63
2024/01/29 09:05:17;;;;;;;0.10;0.10;;;12.30;92.40;;;;;;5005021;28;20022;-64
2024/01/29 09:07:42;;;;;;;0.00;0.00;;;12.60;92.20;;;;;;5001388;28;20029;-65
2024/01/29 09:10:09;;;;;;;0.10;0.10;;;13.20;91.20;;;;;;5005199;28;20042;-63
2024/01/29 09:12:34;;;;;;;0.00;0.00;;;13.30;90.80;;;;;;5000715;28;20058;-62
2024/01/29 09:15:04;;;;;;;0.10;0.10;;;13.80;90.50;;;;;;5003478;28;20080;-65
2024/01/29 09:17:30;;;;;;;0.00;0.00;;;13.80;88.90;;;;;;5002711;28;20084;-62
2024/01/29 09:19:57;;;;;;;3.20;0.43;;;14.30;88.20;;;;;;5002204;28;20412;-63
2024/01/29 09:22:23;;;;;;;0.00;0.00;;;14.60;86.20;;;;;;5020499;28;20369;-64
2024/01/29 09:24:48;;;;;;;0.00;0.00;;;14.60;86.60;;;;;;5016850;28;20037;-65
2024/01/29 09:27:14;;;;;;;0.00;0.00;;;15.20;85.00;;;;;;5000720;28;20026;-63
2024/01/29 09:29:40;;;;;;;0.00;0.00;;;16.20;83.50;;;;;;5000673;28;20030;-63
2024/01/29 09:32:08;;;;;;;0.00;0.00;;;17.10;77.00;;;;;;4999159;28;20285;-64
2024/01/29 09:34:34;;;;;;;0.00;0.00;;;17.30;75.80;;;;;;5003921;28;20030;-63
2024/01/29 09:37:00;;;;;;;;;;;17.10;74.10;;;;;;4999400;28;20022;-65
2024/01/29 09:39:25;;;;;;;0.00;0.00;;;16.90;74.70;;;;;;5005299;28;19905;-63
2024/01/29 09:41:52;;;;;;;0.20;0.20;;;17.00;74.40;;;;;;5005402;28;20436;-63
2024/01/29 09:44:17;;;;;;;0.00;0.00;;;15.90;74.80;;;;;;5001365;28;20265;-63
2024/01/29 09:46:45;;;;;;;0.00;0.00;;;16.80;75.40;;;;;;5000254;28;20044;-66
2024/01/29 09:49:11;;;;;;;0.00;0.00;;;17.70;73.60;;;;;;5018099;28;20117;-63
2024/01/29 09:51:38;;;;;;;0.65;0.65;;;17.70;71.70;;;;;;4997759;28;20040;-64
2024/01/29 09:54:05;;;;;;;0.00;0.00;;;17.60;70.40;;;;;;5004867;28;20121;-64
2024/01/29 09:56:31;;;;;;;0.00;0.00;;;17.80;71.80;;;;;;5000166;28;20026;-65
2024/01/29 09:58:56;;;;;;;0.00;0.00;;;17.70;70.90;;;;;;4997892;28;20056;-63
2024/01/29 10:01:23;;;;;;;0.10;0.10;;;18.50;68.50;;;;;;5004016;28;20026;-63
2024/01/29 10:03:49;;;;;;;0.00;0.00;;;18.20;69.20;;;;;;4998260;28;20024;-65
2024/01/29 10:06:15;;;;;;;;;;;19.30;67.50;;;;;;5003952;28;20044;-63
2024/01/29 10:08:42;;;;;;;0.00;0.00;;;19.60;66.20;;;;;;5000768;28;19911;-64
2024/01/29 10:11:08;;;;;;;0.00;0.00;;;19.70;65.60;;;;;;5000973;28;20034;-64
2024/01/29 10:13:34;;;;;;;2.35;0.47;;;20.00;64.70;;;;;;4998506;28;20395;-64
2024/01/29 10:16:00;;;;;;;;;;;20.30;63.80;;;;;;5003209;28;20422;-64
2024/01/29 10:18:26;;;;;;;0.65;0.20;;;20.30;62.80;;;;;;4999426;28;19964;-65
2024/01/29 10:21:05;;;;;;;0.00;0.00;;;20.00;63.00;;;;;;5014748;28;20398;-64
2024/01/29 10:23:32;;;;;;;0.00;0.00;;;19.80;62.60;;;;;;5015805;28;20129;-65
2024/01/29 10:25:59;;;;;;;0.00;0.00;;;20.40;63.20;;;;;;4998919;28;20481;-63
2024/01/29 10:28:26;;;;;;;0.00;0.00;;;19.80;63.20;;;;;;5000036;28;20139;-63
2024/01/29 10:30:56;;;;;;;0.00;0.00;;;19.00;62.80;;;;;;5002467;28;20017;-63
2024/01/29 10:33:22;;;;;;;0.00;0.00;;;20.20;62.50;;;;;;4997681;28;20183;-64
2024/01/29 10:35:49;;;;;;;0.03;0.03;;;20.80;62.10;;;;;;5003778;28;20235;-65
2024/01/29 10:38:20;;;;;;;0.00;0.00;;;20.70;60.90;;;;;;5000501;28;20026;-64
2024/01/29 10:40:46;;;;;;;0.43;0.20;;;21.10;61.10;;;;;;4997459;28;20049;-64
2024/01/29 10:43:24;;;;;;;0.08;0.03;;;20.60;60.00;;;;;;4994129;28;20025;-66
2024/01/29 10:45:51;;;;;;;0.05;0.05;;;20.50;60.30;;;;;;4998449;28;20466;-67
2024/01/29 10:48:21;;;;;;;0.13;0.10;;;19.80;61.90;;;;;;5018083;28;20076;-67
2024/01/29 10:50:50;;;;;;;0.05;0.05;;;20.90;60.90;;;;;;4997613;28;20029;-67
2024/01/29 10:53:18;;;;;;;0.63;0.17;;;22.10;59.80;;;;;;4996292;28;20105;-66
2024/01/29 10:55:50;;;;;;;0.00;0.00;;;21.80;58.20;;;;;;5003504;28;20087;-67
2024/01/29 10:58:17;;;;;;;0.13;0.13;;;20.90;60.10;;;;;;5000322;28;20109;-67
2024/01/29 11:00:44;;;;;;;0.00;0.00;;;21.00;59.00;;;;;;4998551;28;20026;-67
2024/01/29 11:03:12;;;;;;;0.00;0.00;;;22.10;58.00;;;;;;5001951;28;20022;-66
2024/01/29 11:05:49;;;;;;;0.00;0.00;;;20.20;59.80;;;;;;4998043;28;20026;-67
2024/01/29 11:08:20;;;;;;;0.10;0.10;;;20.30;60.10;;;;;;4997548;28;20034;-67
2024/01/29 11:10:46;;;;;;;0.00;0.00;;;20.00;61.10;;;;;;5002792;28;20105;-67
2024/01/29 11:13:13;;;;;;;0.00;0.00;;;19.10;60.50;;;;;;4998427;28;20121;-67
2024/01/29 11:15:41;;;;;;;0.10;0.10;;;19.00;61.50;;;;;;4998476;28;20034;-66
2024/01/29 11:18:08;;;;;;;0.00;0.00;;;17.30;63.30;;;;;;5001768;28;20022;-67
2024/01/29 11:20:34;;;;;;;0.00;0.00;;;14.80;67.90;;;;;;4998529;28;20077;-66
2024/01/29 11:23:02;;;;;;;0.00;0.00;;;12.60;72.40;;;;;;4999259;28;20033;-66
2024/01/29 11:25:29;;;;;;;0.00;0.00;;;11.20;77.10;;;;;;5001477;28;20096;-67
2024/01/29 11:27:56;;;;;;;0.25;0.10;;;10.60;80.20;;;;;;5013501;28;20041;-66
2024/01/29 11:30:26;;;;;;;0.00;0.00;;;10.10;83.50;;;;;;4997219;28;20026;-66
2024/01/29 11:33:17;;;;;;;0.13;0.13;;;10.10;85.90;;;;;;4996591;28;20041;-66
2024/01/29 11:35:45;;;;;;;0.90;0.32;;;9.80;87.30;;;;;;4997510;28;20355;-67
2024/01/29 11:38:12;;;;;;;0.10;0.10;;;9.50;88.50;;;;;;4998249;28;20018;-66
2024/01/29 11:40:42;;;;;;;0.10;0.10;;;9.30;90.60;;;;;;5001779;28;20013;-66
2024/01/29 11:43:14;;;;;;;0.15;0.08;;;9.10;91.90;;;;;;4997683;28;20184;-66
2024/01/29 11:45:40;;;;;;;0.00;0.00;;;8.90;93.00;;;;;;4998850;28;20030;-66
2024/01/29 11:48:13;;;;;;;0.00;0.00;;;8.90;93.70;;;;;;4997911;28;20045;-66
2024/01/29 11:50:40;;;;;;;0.00;0.00;;;8.80;95.00;;;;;;5003051;28;20030;-66
2024/01/29 11:53:09;;;;;;;0.00;0.00;;;8.90;94.80;;;;;;4999300;28;20446;-63
2024/01/29 11:55:35;;;;;;;0.10;0.10;;;8.90;95.10;;;;;;5001050;28;20136;-65
2024/01/29 11:58:01;;;;;;;0.00;0.00;;;9.00;95.10;;;;;;5002631;28;20133;-65
2024/01/29 12:00:28;;;;;;;0.00;0.00;;;9.00;95.30;;;;;;5005098;28;20014;-63
2024/01/29 12:02:54;;;;;;;;;;;8.90;96.00;;;;;;4999235;28;20026;-64
2024/01/29 12:05:19;;;;;;;0.00;0.00;;;8.90;96.60;;;;;;4998008;28;19905;-65
2024/01/29 12:07:49;;;;;;;0.47;0.47;;;8.70;96.10;;;;;;5001027;28;20029;-63
2024/01/29 12:10:17;;;;;;;0.00;0.00;;;8.70;96.80;;;;;;4995423;28;20038;-63
2024/01/29 12:12:44;;;;;;;0.00;0.00;;;8.60;97.40;;;;;;4999079;28;20022;-63
2024/01/29 12:15:12;;;;;;;0.28;0.28;;;8.70;97.60;;;;;;5011006;28;20023;-62
2024/01/29 12:17:44;;;;;;;0.00;0.00;;;8.70;98.10;;;;;;5001175;28;20030;-63
2024/01/29 12:20:12;;;;;;;0.00;0.00;;;8.80;97.90;;;;;;5000622;28;20033;-64
2024/01/29 12:22:41;;;;;;;0.20;0.10;;;8.90;98.00;;;;;;4996923;28;20033;-63
2024/01/29 12:25:11;;;;;;;0.00;0.00;;;8.90;98.20;;;;;;5013774;28;20466;-63
2024/01/29 12:27:41;;;;;;;0.20;0.20;;;8.90;98.30;;;;;;5032076;28;20037;-63
2024/01/29 12:30:11;;;;;;;0.00;0.00;;;8.80;98.60;;;;;;5006012;28;20025;-63
2024/01/29 12:32:39;;;;;;;0.00;0.00;;;8.40;99.00;;;;;;4998461;28;20018;-62
2024/01/29 12:35:27;;;;;;;0.08;0.08;;;8.10;99.90;;;;;;4993943;28;20110;-63
2024/01/29 12:37:53;;;;;;;0.20;0.13;;;7.90;99.90;;;;;;4994570;28;20037;-65
2024/01/29 12:40:19;;;;;;;0.13;0.03;;;8.00;99.90;;;;;;5015176;28;20018;-64
2024/01/29 12:42:45;;;;;;;9.63;0.65;;;8.10;99.90;;;;;;4995833;28;20132;-63
2024/01/29 12:45:17;;;;;;;0.03;0.03;;;8.20;99.90;;;;;;4996896;28;20041;-64
2024/01/29 12:47:44;;;;;;;0.00;0.00;;;8.00;99.90;;;;;;5000857;28;20389;-62
2024/01/29 12:50:09;;;;;;;0.00;0.00;;;7.80;99.90;;;;;;4996982;28;20137;-62
2024/01/29 12:52:35;;;;;;;0.43;0.30;;;7.80;99.90;;;;;;4998231;28;20038;-63